createdAt,value
2017-07-19T00:01:58.138Z,5.73
2017-07-19T00:04:25.620Z,7.13
2017-07-19T00:06:53.102Z,6.00
2017-07-19T00:09:20.586Z,5.00
2017-07-19T00:11:48.069Z,5.53
2017-07-19T00:14:15.550Z,7.50
2017-07-19T00:16:43.046Z,8.83
2017-07-19T00:19:10.527Z,10.83
2017-07-19T00:21:38.768Z,6.23
2017-07-19T00:24:06.261Z,6.70
2017-07-19T00:26:34.514Z,8.10
2017-07-19T00:29:01.999Z,5.50
2017-07-19T00:31:30.279Z,5.97
2017-07-19T00:33:58.526Z,7.17
2017-07-19T00:36:26.009Z,6.07
2017-07-19T00:38:54.267Z,5.40
2017-07-19T00:41:21.751Z,5.67
2017-07-19T00:43:49.999Z,5.90
2017-07-19T00:46:17.485Z,6.17
2017-07-19T00:48:45.735Z,8.67
2017-07-19T00:51:13.221Z,8.30
2017-07-19T00:53:41.465Z,6.70
2017-07-19T00:56:08.952Z,10.27
2017-07-19T00:58:37.197Z,6.13
2017-07-19T01:01:04.691Z,8.87
2017-07-19T01:03:32.950Z,6.80
2017-07-19T01:06:00.430Z,5.97
2017-07-19T01:08:27.931Z,6.63
2017-07-19T01:10:55.414Z,7.70
2017-07-19T01:13:22.890Z,8.97
2017-07-19T01:15:50.364Z,5.67
2017-07-19T01:18:18.615Z,5.93
2017-07-19T01:20:46.106Z,7.70
2017-07-19T01:23:13.603Z,4.90
2017-07-19T01:25:41.103Z,6.03
2017-07-19T01:28:08.715Z,6.37
2017-07-19T01:30:36.212Z,6.40
2017-07-19T01:33:03.682Z,6.60
2017-07-19T01:35:31.163Z,11.30
2017-07-19T01:37:59.475Z,5.87
2017-07-19T01:40:26.966Z,6.20
2017-07-19T01:42:54.448Z,6.77
2017-07-19T01:45:22.715Z,6.63
2017-07-19T01:47:50.188Z,6.83
2017-07-19T01:50:18.429Z,11.17
2017-07-19T01:52:45.921Z,7.63
2017-07-19T01:55:14.162Z,10.13
2017-07-19T01:57:41.676Z,11.47
2017-07-19T02:00:09.187Z,7.33
2017-07-19T02:02:36.673Z,5.43
2017-07-19T02:05:04.919Z,6.77
2017-07-19T02:07:32.431Z,11.67
2017-07-19T02:09:59.910Z,7.23
2017-07-19T02:12:27.403Z,7.23
2017-07-19T02:14:54.886Z,7.73
2017-07-19T02:17:23.139Z,9.20
2017-07-19T02:19:50.623Z,6.37
2017-07-19T02:22:18.891Z,7.63
2017-07-19T02:24:47.140Z,5.90
2017-07-19T02:27:14.677Z,6.20
2017-07-19T02:29:42.161Z,5.70
2017-07-19T02:32:16.951Z,10.33
2017-07-19T02:34:44.444Z,6.00
2017-07-19T02:37:11.922Z,5.70
2017-07-19T02:39:39.399Z,6.93
2017-07-19T02:42:07.653Z,8.77
2017-07-19T02:44:35.129Z,5.30
2017-07-19T02:47:02.607Z,7.27
2017-07-19T02:49:30.097Z,7.57
2017-07-19T02:51:57.577Z,7.17
2017-07-19T02:54:25.073Z,6.67
2017-07-19T02:56:53.339Z,8.23
2017-07-19T02:59:20.818Z,8.90
2017-07-19T03:01:49.063Z,7.63
2017-07-19T03:04:16.563Z,6.57
2017-07-19T03:06:44.043Z,8.93
2017-07-19T03:09:11.532Z,7.73
2017-07-19T03:11:39.028Z,7.20
2017-07-19T03:14:07.280Z,6.53
2017-07-19T03:16:34.749Z,9.30
2017-07-19T03:19:02.243Z,9.50
2017-07-19T03:21:29.735Z,7.10
2017-07-19T03:23:57.211Z,6.67
2017-07-19T03:26:24.706Z,7.57
2017-07-19T03:28:52.178Z,8.47
2017-07-19T03:31:19.672Z,7.77
2017-07-19T03:33:47.175Z,9.97
2017-07-19T03:36:15.419Z,7.87
2017-07-19T03:38:42.904Z,7.20
2017-07-19T03:41:11.171Z,6.77
2017-07-19T03:43:38.646Z,6.60
2017-07-19T03:46:06.890Z,6.43
2017-07-19T03:48:34.382Z,11.23
2017-07-19T03:51:02.628Z,5.30
2017-07-19T03:53:30.117Z,6.03
2017-07-19T03:55:57.618Z,8.83
2017-07-19T03:58:25.098Z,6.10
2017-07-19T04:00:52.630Z,6.80
2017-07-19T04:03:20.125Z,10.70
2017-07-19T04:05:47.609Z,6.30
2017-07-19T04:08:15.862Z,7.00
2017-07-19T04:10:43.358Z,6.00
2017-07-19T04:13:10.824Z,6.37
2017-07-19T04:15:38.309Z,8.60
2017-07-19T04:18:05.807Z,12.83
2017-07-19T04:20:33.281Z,6.73
2017-07-19T04:23:01.534Z,6.80
2017-07-19T04:25:29.024Z,12.33
2017-07-19T04:27:57.261Z,10.10
2017-07-19T04:30:24.734Z,5.23
2017-07-19T04:32:52.218Z,6.87
2017-07-19T04:35:20.453Z,7.00
2017-07-19T04:37:47.985Z,11.80
2017-07-19T04:40:15.480Z,10.00
2017-07-19T04:42:42.950Z,6.07
2017-07-19T04:45:10.434Z,11.37
2017-07-19T04:47:37.922Z,6.13
2017-07-19T04:50:05.396Z,6.40
2017-07-19T04:52:32.879Z,9.93
2017-07-19T04:55:00.379Z,10.23
2017-07-19T04:57:27.859Z,7.57
2017-07-19T04:59:55.333Z,7.93
2017-07-19T05:02:22.832Z,7.83
2017-07-19T05:04:51.074Z,6.43
2017-07-19T05:07:18.558Z,7.57
2017-07-19T05:09:46.055Z,8.20
2017-07-19T05:12:13.538Z,13.13
2017-07-19T05:14:41.022Z,7.27
2017-07-19T05:17:08.507Z,9.63
2017-07-19T05:19:36.769Z,10.50
2017-07-19T05:22:04.253Z,8.53
2017-07-19T05:24:32.509Z,10.27
2017-07-19T05:26:59.995Z,8.90
2017-07-19T05:29:27.475Z,8.23
2017-07-19T05:31:54.973Z,8.93
2017-07-19T05:34:22.445Z,9.60
2017-07-19T05:36:49.924Z,7.50
2017-07-19T05:39:17.414Z,6.67
2017-07-19T05:41:44.894Z,12.27
2017-07-19T05:44:12.387Z,14.03
2017-07-19T05:46:40.655Z,7.80
2017-07-19T05:49:08.135Z,7.10
2017-07-19T05:51:36.378Z,8.43
2017-07-19T05:54:03.897Z,10.60
2017-07-19T05:56:31.403Z,9.77
2017-07-19T05:58:58.881Z,7.33
2017-07-19T06:01:27.146Z,13.93
2017-07-19T06:03:54.614Z,8.17
2017-07-19T06:06:22.865Z,13.70
2017-07-19T06:08:50.359Z,11.20
2017-07-19T06:11:18.612Z,8.20
2017-07-19T06:13:46.094Z,21.20
2017-07-19T06:16:13.585Z,13.50
2017-07-19T06:18:41.068Z,7.30
2017-07-19T06:21:08.551Z,10.07
2017-07-19T06:23:36.047Z,8.37
2017-07-19T06:26:03.521Z,7.10
2017-07-19T06:28:31.016Z,7.30
2017-07-19T06:30:58.510Z,6.10
2017-07-19T06:33:25.986Z,12.23
2017-07-19T06:35:53.467Z,7.00
2017-07-19T06:38:20.954Z,7.20
2017-07-19T06:40:48.426Z,9.27
2017-07-19T06:43:15.911Z,10.97
2017-07-19T06:45:43.409Z,8.80
2017-07-19T06:48:10.887Z,10.00
2017-07-19T06:50:38.388Z,9.97
2017-07-19T06:53:05.915Z,10.20
2017-07-19T06:55:33.393Z,6.53
2017-07-19T06:58:01.643Z,8.53
2017-07-19T07:00:30.010Z,7.80
2017-07-19T07:02:57.490Z,16.13
2017-07-19T07:05:24.970Z,7.20
2017-07-19T07:07:52.461Z,7.70
2017-07-19T07:10:19.945Z,10.50
2017-07-19T07:12:47.431Z,9.70
2017-07-19T07:15:15.718Z,7.87
2017-07-19T07:17:43.963Z,6.90
2017-07-19T07:20:11.436Z,7.90
2017-07-19T07:22:38.930Z,5.93
2017-07-19T07:25:06.405Z,5.80
2017-07-19T07:27:33.880Z,6.70
2017-07-19T07:30:01.365Z,8.70
2017-07-19T07:32:28.849Z,8.30
2017-07-19T07:34:57.106Z,9.70
2017-07-19T07:37:24.612Z,5.37
2017-07-19T07:39:52.085Z,8.83
2017-07-19T07:42:19.569Z,8.20
2017-07-19T07:44:47.062Z,11.00
2017-07-19T07:47:14.544Z,8.60
2017-07-19T07:49:42.031Z,12.73
2017-07-19T07:52:09.534Z,12.67
2017-07-19T07:54:37.788Z,6.13
2017-07-19T07:57:05.282Z,5.63
2017-07-19T07:59:32.775Z,6.70
2017-07-19T08:02:00.272Z,12.93
2017-07-19T08:04:27.747Z,8.20
2017-07-19T08:06:56.009Z,7.80
2017-07-19T08:09:23.492Z,6.80
2017-07-19T08:11:50.970Z,8.20
2017-07-19T08:14:18.460Z,8.23
2017-07-19T08:16:45.947Z,10.00
2017-07-19T08:19:13.428Z,8.23
2017-07-19T08:21:40.920Z,6.70
2017-07-19T08:24:08.477Z,8.00
2017-07-19T08:26:35.962Z,9.63
2017-07-19T08:29:03.455Z,7.67
2017-07-19T08:31:30.942Z,9.80
2017-07-19T08:33:58.425Z,7.10
2017-07-19T08:36:25.971Z,15.13
2017-07-19T08:38:53.452Z,11.60
2017-07-19T08:41:20.946Z,11.40
2017-07-19T08:43:49.205Z,10.00
2017-07-19T08:46:16.685Z,9.00
2017-07-19T08:48:44.938Z,11.33
2017-07-19T08:51:12.446Z,6.57
2017-07-19T08:53:39.920Z,5.67
2017-07-19T08:56:07.403Z,6.63
2017-07-19T08:58:34.896Z,13.33
2017-07-19T09:01:03.137Z,16.90
2017-07-19T09:03:30.609Z,12.33
2017-07-19T09:05:58.105Z,15.23
2017-07-19T09:08:25.583Z,13.33
2017-07-19T09:10:53.070Z,15.13
2017-07-19T09:13:20.562Z,6.83
2017-07-19T09:15:48.818Z,13.43
2017-07-19T09:18:16.476Z,8.80
2017-07-19T09:20:44.116Z,8.03
2017-07-19T09:23:11.627Z,7.70
2017-07-19T09:25:39.138Z,6.83
2017-07-19T09:28:06.624Z,9.70
2017-07-19T09:30:34.109Z,6.57
2017-07-19T09:33:01.589Z,10.63
2017-07-19T09:35:29.101Z,5.80
2017-07-19T09:37:56.589Z,9.10
2017-07-19T09:40:24.076Z,8.90
2017-07-19T09:42:51.575Z,5.23
2017-07-19T09:45:19.064Z,6.20
2017-07-19T09:47:46.547Z,6.50
2017-07-19T09:50:14.062Z,7.53
2017-07-19T09:52:41.542Z,7.70
2017-07-19T09:55:09.799Z,7.77
2017-07-19T09:57:37.312Z,4.37
2017-07-19T10:00:04.791Z,14.23
2017-07-19T10:02:32.337Z,5.23
2017-07-19T10:04:59.838Z,21.47
2017-07-19T10:07:27.339Z,303.67
2017-07-19T10:09:54.839Z,304.97
2017-07-19T10:12:22.347Z,152.23
2017-07-19T10:14:49.843Z,68.43
2017-07-19T10:17:17.322Z,44.77
2017-07-19T10:19:44.836Z,30.63
2017-07-19T10:22:12.318Z,32.67
2017-07-19T10:24:39.811Z,17.27
2017-07-19T10:27:07.314Z,16.40
2017-07-19T10:29:34.802Z,18.87
2017-07-19T10:32:02.291Z,12.77
2017-07-19T10:34:29.804Z,16.10
2017-07-19T10:36:57.286Z,11.90
2017-07-19T10:39:24.776Z,14.73
2017-07-19T10:41:52.277Z,14.40
2017-07-19T10:44:19.749Z,8.30
2017-07-19T10:46:47.234Z,8.40
2017-07-19T10:49:14.740Z,11.03
2017-07-19T10:51:42.226Z,11.80
2017-07-19T10:54:09.723Z,11.93
2017-07-19T10:56:37.226Z,9.87
2017-07-19T10:59:04.710Z,6.37
2017-07-19T11:01:32.184Z,6.60
2017-07-19T11:03:59.682Z,9.63
2017-07-19T11:06:27.928Z,9.70
2017-07-19T11:08:55.416Z,9.73
2017-07-19T11:11:23.680Z,9.60
2017-07-19T11:13:51.154Z,6.57
2017-07-19T11:16:19.462Z,7.43
2017-07-19T11:18:46.954Z,9.10
2017-07-19T11:21:14.448Z,7.20
2017-07-19T11:23:42.702Z,5.63
2017-07-19T11:26:10.221Z,8.60
2017-07-19T11:28:37.712Z,5.33
2017-07-19T11:31:05.197Z,13.50
2017-07-19T11:33:33.471Z,9.03
2017-07-19T11:36:01.721Z,10.67
2017-07-19T11:38:29.223Z,7.53
2017-07-19T11:40:56.742Z,8.10
2017-07-19T11:43:24.229Z,7.13
2017-07-19T11:45:52.483Z,8.93
2017-07-19T11:48:19.990Z,13.60
2017-07-19T11:50:47.487Z,9.63
2017-07-19T11:53:14.967Z,6.00
2017-07-19T11:55:43.259Z,13.13
2017-07-19T11:58:11.501Z,14.63
2017-07-19T12:00:38.979Z,7.80
2017-07-19T12:03:06.489Z,10.83
2017-07-19T12:05:33.968Z,9.67
2017-07-19T12:08:01.447Z,8.93
2017-07-19T12:10:28.974Z,8.77
2017-07-19T12:12:56.453Z,12.07
2017-07-19T12:15:23.933Z,8.53
2017-07-19T12:17:51.417Z,6.43
2017-07-19T12:20:19.678Z,14.47
2017-07-19T12:22:48.003Z,7.60
2017-07-19T12:25:15.486Z,6.17
2017-07-19T12:27:42.967Z,6.83
2017-07-19T12:30:10.446Z,9.90
2017-07-19T12:32:38.718Z,19.37
2017-07-19T12:35:06.965Z,9.73
2017-07-19T12:37:34.436Z,7.63
2017-07-19T12:40:01.929Z,8.50
2017-07-19T12:42:29.409Z,9.73
2017-07-19T12:44:56.890Z,9.03
2017-07-19T12:47:24.378Z,8.43
2017-07-19T12:49:51.862Z,17.83
2017-07-19T12:52:19.446Z,11.03
2017-07-19T12:54:46.932Z,5.60
2017-07-19T12:57:14.422Z,5.80
2017-07-19T12:59:42.665Z,8.03
2017-07-19T13:02:10.154Z,5.97
2017-07-19T13:04:37.655Z,4.97
2017-07-19T13:07:05.142Z,6.27
2017-07-19T13:09:32.630Z,6.50
2017-07-19T13:12:00.110Z,5.03
2017-07-19T13:14:27.595Z,5.57
2017-07-19T13:16:55.094Z,8.60
2017-07-19T13:19:22.586Z,7.43
2017-07-19T13:21:50.070Z,7.30
2017-07-19T13:24:17.575Z,8.07
2017-07-19T13:26:45.090Z,10.03
2017-07-19T13:29:12.571Z,6.63
2017-07-19T13:31:40.110Z,6.57
2017-07-19T13:34:07.598Z,8.60
2017-07-19T13:36:35.070Z,5.20
2017-07-19T13:39:02.573Z,5.60
2017-07-19T13:41:30.055Z,9.60
2017-07-19T13:43:57.534Z,7.83
2017-07-19T13:46:25.039Z,6.03
2017-07-19T13:48:52.530Z,5.83
2017-07-19T13:51:20.015Z,6.93
2017-07-19T13:53:47.510Z,4.93
2017-07-19T13:56:15.750Z,7.20
2017-07-19T13:58:43.231Z,8.73
2017-07-19T14:01:11.494Z,12.00
2017-07-19T14:03:38.977Z,8.53
2017-07-19T14:06:07.218Z,7.27
2017-07-19T14:08:34.710Z,5.43
2017-07-19T14:11:02.959Z,4.70
2017-07-19T14:13:30.429Z,6.60
2017-07-19T14:15:57.927Z,11.90
2017-07-19T14:18:25.411Z,5.60
2017-07-19T14:20:52.894Z,6.03
2017-07-19T14:23:20.394Z,7.03
2017-07-19T14:25:47.978Z,8.40
2017-07-19T14:28:15.467Z,8.10
2017-07-19T14:30:42.956Z,5.73
2017-07-19T14:33:11.219Z,9.97
2017-07-19T14:35:38.706Z,12.47
2017-07-19T14:38:06.203Z,14.93
2017-07-19T14:40:33.682Z,9.03
2017-07-19T14:43:01.152Z,7.00
2017-07-19T14:45:28.651Z,11.73
2017-07-19T14:47:56.151Z,10.03
2017-07-19T14:50:23.644Z,12.43
2017-07-19T14:52:51.902Z,9.73
2017-07-19T14:55:19.446Z,8.50
2017-07-19T14:57:46.923Z,9.17
2017-07-19T15:00:14.511Z,6.37
2017-07-19T15:02:42.823Z,7.73
2017-07-19T15:05:10.306Z,18.00
2017-07-19T15:07:37.820Z,9.40
2017-07-19T15:10:05.307Z,9.23
2017-07-19T15:12:32.781Z,8.03
2017-07-19T15:15:00.317Z,6.20
2017-07-19T15:17:27.798Z,8.93
2017-07-19T15:19:55.273Z,9.00
2017-07-19T15:22:22.768Z,10.33
2017-07-19T15:24:50.244Z,6.43
2017-07-19T15:27:17.722Z,10.10
2017-07-19T15:29:45.214Z,6.80
2017-07-19T15:32:12.755Z,9.40
2017-07-19T15:34:40.238Z,5.07
2017-07-19T15:37:07.734Z,9.43
2017-07-19T15:39:35.223Z,8.67
2017-07-19T15:42:02.703Z,6.10
2017-07-19T15:44:30.200Z,7.60
2017-07-19T15:46:57.720Z,8.60
2017-07-19T15:49:25.245Z,8.77
2017-07-19T15:51:52.733Z,8.57
2017-07-19T15:54:20.267Z,13.43
2017-07-19T15:56:47.750Z,14.67
2017-07-19T15:59:15.255Z,10.67
2017-07-19T16:01:43.500Z,11.60
2017-07-19T16:04:10.992Z,6.93
2017-07-19T16:06:38.484Z,10.80
2017-07-19T16:09:05.967Z,9.83
2017-07-19T16:11:33.455Z,7.23
2017-07-19T16:14:01.735Z,8.80
2017-07-19T16:16:29.988Z,11.77
2017-07-19T16:18:57.471Z,7.20
2017-07-19T16:21:25.730Z,6.87
2017-07-19T16:23:53.220Z,8.50
2017-07-19T16:26:21.467Z,7.93
2017-07-19T16:28:49.742Z,11.77
2017-07-19T16:31:17.219Z,7.77
2017-07-19T16:33:45.473Z,9.60
2017-07-19T16:36:12.973Z,7.90
2017-07-19T16:38:40.458Z,9.90
2017-07-19T16:41:07.929Z,11.40
2017-07-19T16:43:35.430Z,9.40
2017-07-19T16:46:03.678Z,7.13
2017-07-19T16:48:31.163Z,11.00
2017-07-19T16:50:59.441Z,9.80
2017-07-19T16:53:26.943Z,7.33
2017-07-19T16:55:54.502Z,11.33
2017-07-19T16:58:22.064Z,8.07
2017-07-19T17:00:49.545Z,12.90
2017-07-19T17:03:17.038Z,13.67
2017-07-19T17:05:45.300Z,7.10
2017-07-19T17:08:12.791Z,9.40
2017-07-19T17:10:40.273Z,12.53
2017-07-19T17:13:07.768Z,18.57
2017-07-19T17:15:35.260Z,9.70
2017-07-19T17:18:03.509Z,7.83
2017-07-19T17:20:31.194Z,9.03
2017-07-19T17:22:59.512Z,8.47
2017-07-19T17:25:27.000Z,10.70
2017-07-19T17:27:54.522Z,12.90
2017-07-19T17:30:22.015Z,12.80
2017-07-19T17:32:49.507Z,14.47
2017-07-19T17:35:17.787Z,15.30
2017-07-19T17:37:46.026Z,9.30
2017-07-19T17:40:13.509Z,8.40
2017-07-19T17:42:41.015Z,19.13
2017-07-19T17:45:08.501Z,8.77
2017-07-19T17:47:35.982Z,8.13
2017-07-19T17:50:03.474Z,8.30
2017-07-19T17:52:31.713Z,8.30
2017-07-19T17:54:59.208Z,10.30
2017-07-19T17:57:26.715Z,11.23
2017-07-19T17:59:54.198Z,12.43
2017-07-19T18:02:21.710Z,9.70
2017-07-19T18:04:49.640Z,9.07
2017-07-19T18:07:17.898Z,7.30
2017-07-19T18:09:45.398Z,10.93
2017-07-19T18:12:12.903Z,7.17
2017-07-19T18:14:40.385Z,10.60
2017-07-19T18:17:07.898Z,7.50
2017-07-19T18:19:35.394Z,14.93
2017-07-19T18:22:02.885Z,12.83
2017-07-19T18:24:30.370Z,9.13
2017-07-19T18:26:58.009Z,8.43
2017-07-19T18:29:25.497Z,15.40
2017-07-19T18:31:52.979Z,9.27
2017-07-19T18:34:20.478Z,10.07
2017-07-19T18:36:48.726Z,7.33
2017-07-19T18:39:16.223Z,10.93
2017-07-19T18:41:43.745Z,11.03
2017-07-19T18:44:11.239Z,6.10
2017-07-19T18:46:38.731Z,9.57
2017-07-19T18:49:06.249Z,13.23
2017-07-19T18:51:34.492Z,6.63
2017-07-19T18:54:02.020Z,5.47
2017-07-19T18:56:29.518Z,9.57
2017-07-19T18:58:57.016Z,6.60
2017-07-19T19:01:24.504Z,6.47
2017-07-19T19:03:52.696Z,9.93
2017-07-19T19:06:21.735Z,11.23
2017-07-19T19:08:50.303Z,8.93
2017-07-19T19:11:18.452Z,7.10
2017-07-19T19:13:46.365Z,7.20
2017-07-19T19:16:15.575Z,9.50
2017-07-19T19:18:43.741Z,11.07
2017-07-19T19:21:12.286Z,7.40
2017-07-19T19:23:40.540Z,7.07
2017-07-19T19:26:09.093Z,6.47
2017-07-19T19:28:38.046Z,8.53
2017-07-19T19:31:06.730Z,7.67
2017-07-19T19:33:35.082Z,10.77
2017-07-19T19:36:02.870Z,9.83
2017-07-19T19:38:30.362Z,16.27
2017-07-19T19:40:57.883Z,9.93
2017-07-19T19:43:25.378Z,8.60
2017-07-19T19:45:52.851Z,7.77
2017-07-19T19:48:20.360Z,16.30
2017-07-19T19:50:47.842Z,10.13
2017-07-19T19:53:15.318Z,6.00
2017-07-19T19:55:43.586Z,10.10
2017-07-19T19:58:11.099Z,11.10
2017-07-19T20:00:38.570Z,7.10
2017-07-19T20:03:06.078Z,10.30
2017-07-19T20:05:34.326Z,7.50
2017-07-19T20:08:01.837Z,11.13
2017-07-19T20:10:29.359Z,6.50
2017-07-19T20:12:57.597Z,7.80
2017-07-19T20:15:25.079Z,8.33
2017-07-19T20:17:52.561Z,6.07
2017-07-19T20:20:20.056Z,6.23
2017-07-19T20:22:47.539Z,8.93
2017-07-19T20:25:15.042Z,18.73
2017-07-19T20:27:43.319Z,118.10
2017-07-19T20:30:11.591Z,255.30
2017-07-19T20:32:39.097Z,140.17
2017-07-19T20:35:06.579Z,68.00
2017-07-19T20:37:34.072Z,38.53
2017-07-19T20:40:02.345Z,432.13
2017-07-19T20:42:29.836Z,305.83
2017-07-19T20:44:57.322Z,242.20
2017-07-19T20:47:24.826Z,119.47
2017-07-19T20:49:52.655Z,93.13
2017-07-19T20:52:20.932Z,92.47
2017-07-19T20:54:48.771Z,485.20
2017-07-19T20:57:16.882Z,312.07
2017-07-19T20:59:44.787Z,95.23
2017-07-19T21:02:13.009Z,214.60
2017-07-19T21:04:42.762Z,241.60
2017-07-19T21:07:11.176Z,368.23
2017-07-19T21:09:39.070Z,381.40
2017-07-19T21:12:06.880Z,266.03
2017-07-19T21:14:35.038Z,26.10
2017-07-19T21:17:02.749Z,22.53
2017-07-19T21:19:32.104Z,107.30
2017-07-19T21:22:01.523Z,20.63
2017-07-19T21:24:30.295Z,18.97
2017-07-19T21:26:58.974Z,50.40
2017-07-19T21:29:26.495Z,143.97
2017-07-19T21:31:54.650Z,10.77
2017-07-19T21:34:23.905Z,102.90
2017-07-19T21:36:51.453Z,178.50
2017-07-19T21:39:19.627Z,504.20
2017-07-19T21:41:47.675Z,411.90
2017-07-19T21:44:15.491Z,122.47
2017-07-19T21:46:43.349Z,144.47
2017-07-19T21:49:11.693Z,192.97
2017-07-19T21:51:39.740Z,74.00
2017-07-19T21:54:07.836Z,332.00
2017-07-19T21:56:35.322Z,27.80
2017-07-19T21:59:02.825Z,172.57
2017-07-19T22:01:31.117Z,360.33
2017-07-19T22:03:58.619Z,242.53
2017-07-19T22:06:26.102Z,16.50
2017-07-19T22:08:53.604Z,317.37
2017-07-19T22:11:21.107Z,295.73
2017-07-19T22:13:48.695Z,244.87
2017-07-19T22:16:16.203Z,177.73
2017-07-19T22:18:43.692Z,75.27
2017-07-19T22:21:11.193Z,154.93
2017-07-19T22:23:38.872Z,26.33
2017-07-19T22:26:07.299Z,21.60
2017-07-19T22:28:34.776Z,7.50
2017-07-19T22:31:03.034Z,10.30
2017-07-19T22:33:30.534Z,145.37
2017-07-19T22:35:58.017Z,135.67
2017-07-19T22:38:25.513Z,108.87
2017-07-19T22:40:53.003Z,26.53
2017-07-19T22:43:21.435Z,95.53
2017-07-19T22:45:49.099Z,15.53
2017-07-19T22:48:16.660Z,81.10
2017-07-19T22:50:44.295Z,38.83
2017-07-19T22:53:12.607Z,9.63
2017-07-19T22:55:40.357Z,28.67
2017-07-19T22:58:07.850Z,37.07
2017-07-19T23:00:36.115Z,25.30
2017-07-19T23:03:03.871Z,34.90
2017-07-19T23:05:31.518Z,10.63
2017-07-19T23:07:59.165Z,33.20
2017-07-19T23:10:26.888Z,20.93
2017-07-19T23:12:54.489Z,15.00
2017-07-19T23:15:22.022Z,7.23
2017-07-19T23:17:49.511Z,13.60
2017-07-19T23:20:16.994Z,23.57
2017-07-19T23:22:44.486Z,15.17
2017-07-19T23:25:11.968Z,27.97
2017-07-19T23:27:39.461Z,6.50
2017-07-19T23:30:06.956Z,21.00
2017-07-19T23:32:34.447Z,11.43
2017-07-19T23:35:01.930Z,6.70
2017-07-19T23:37:29.427Z,7.77
2017-07-19T23:39:56.909Z,11.00
2017-07-19T23:42:24.397Z,6.87
2017-07-19T23:44:51.906Z,14.03
2017-07-19T23:47:19.376Z,4.93
2017-07-19T23:49:46.854Z,16.37
2017-07-19T23:52:14.372Z,8.93
2017-07-19T23:54:41.851Z,7.80
2017-07-19T23:57:09.336Z,7.97
2017-07-19T23:59:36.826Z,8.77
